Pleasanton, California
Current Conditions -  °F | °C
As of 4:53 PM on Friday 19 Dec 2014 (Local Time) from KLVK Reporting Station
Overcast Overcast  
Wind Chill: 59°   Ceiling: 2400
Heat Index: 59°   Visibility: 10mi
Dew Point: 54°   Wind: 7mph
Humidity: 83%   Direction: 300°WNW
Pressure: 30.12"   Gusts: NA
Location:  37.66°N, 121.87°W
Report Text: KLVK 200053Z 30006KT 10SM BKN024 OVC039 15/12 A3012 RMK AO2 RAB28E41 SLP199 P0002 T01500122
Loading
Personal Weather Stations






























Interactive Weather Map New forecast layout! Learn more

10-Day Weather Forecast

Advertisements
Track Severe Weather on mobile